Time;durP1;ratioP1;P1;durP2;ratioP2;P2;SDS_P1;SDS_P2;PMS_P1;PMS_P2;Temp;Humidity;BMP_temperature;BMP_pressure;BME280_temperature;BME280_humidity;BME280_pressure;Samples;Min_cycle;Max_cycle;Signal;HPM_P1;HPM_P2
2023/06/27 00:00:54;;;;;;;3.30;2.13;;;22.60;99.20;;;;;;5052522;28;20672;-53
2023/06/27 00:03:24;;;;;;;3.97;2.30;;;22.60;99.20;;;;;;5051968;28;20201;-52
2023/06/27 00:05:51;;;;;;;2.20;2.10;;;22.50;99.30;;;;;;5052498;28;20256;-53
2023/06/27 00:08:18;;;;;;;1.33;1.33;;;22.50;99.10;;;;;;5051411;28;20622;-52
2023/06/27 00:10:45;;;;;;;6.53;2.20;;;22.50;98.70;;;;;;5048106;28;20618;-53
2023/06/27 00:13:16;;;;;;;5.70;1.97;;;22.50;98.60;;;;;;5049169;28;20642;-53
2023/06/27 00:15:43;;;;;;;4.03;1.87;;;22.50;98.80;;;;;;5049608;28;20217;-52
2023/06/27 00:18:10;;;;;;;3.53;2.03;;;22.40;98.70;;;;;;5050206;28;20225;-53
2023/06/27 00:20:39;;;;;;;5.50;2.27;;;22.40;99.40;;;;;;5051260;28;20205;-52
2023/06/27 00:23:19;;;;;;;3.63;2.40;;;22.30;99.20;;;;;;5048966;28;20252;-52
2023/06/27 00:25:46;;;;;;;1.60;1.50;;;22.20;99.50;;;;;;5050021;28;20278;-52
2023/06/27 00:28:13;;;;;;;4.83;1.93;;;22.20;99.00;;;;;;5051935;28;20718;-52
2023/06/27 00:30:40;;;;;;;2.27;1.97;;;22.10;99.10;;;;;;5050423;28;20730;-53
2023/06/27 00:33:09;;;;;;;1.93;1.33;;;22.20;99.30;;;;;;5047608;28;20263;-53
2023/06/27 00:35:36;;;;;;;1.67;1.40;;;22.20;99.80;;;;;;5050010;28;20622;-52
2023/06/27 00:38:04;;;;;;;6.33;1.37;;;22.20;99.10;;;;;;5051082;28;20217;-53
2023/06/27 00:40:31;;;;;;;2.40;1.73;;;22.20;99.30;;;;;;5049693;28;20626;-52
2023/06/27 00:42:58;;;;;;;1.60;1.50;;;22.20;99.20;;;;;;5049190;28;20206;-52
2023/06/27 00:45:25;;;;;;;5.43;1.57;;;22.10;99.00;;;;;;5050063;28;20201;-53
2023/06/27 00:47:53;;;;;;;1.80;1.77;;;22.10;98.90;;;;;;5051297;28;20745;-52
2023/06/27 00:50:21;;;;;;;1.47;0.90;;;22.00;98.60;;;;;;5051285;28;20281;-52
2023/06/27 00:52:49;;;;;;;1.43;1.40;;;22.00;98.70;;;;;;5051368;28;20574;-52
2023/06/27 00:55:18;;;;;;;1.57;1.47;;;21.90;98.90;;;;;;5051841;28;20248;-53
2023/06/27 00:57:47;;;;;;;1.90;1.60;;;22.00;98.50;;;;;;5051680;28;20248;-52
2023/06/27 01:00:15;;;;;;;5.07;1.73;;;21.90;98.60;;;;;;5051399;28;20767;-53
2023/06/27 01:02:44;;;;;;;2.30;1.60;;;21.90;98.70;;;;;;5062605;28;20628;-53
2023/06/27 01:05:12;;;;;;;2.43;1.20;;;21.90;98.50;;;;;;5051749;28;20206;-52
2023/06/27 01:07:45;;;;;;;2.60;2.00;;;21.90;98.60;;;;;;5051423;28;20230;-52
2023/06/27 01:10:16;;;;;;;1.87;1.37;;;21.80;98.20;;;;;;5051654;28;20206;-52
2023/06/27 01:12:49;;;;;;;1.70;1.43;;;21.80;97.90;;;;;;5051339;28;20263;-52
2023/06/27 01:15:16;;;;;;;3.13;1.53;;;21.60;98.10;;;;;;5050960;28;20221;-52
2023/06/27 01:17:44;;;;;;;4.13;1.53;;;21.50;97.90;;;;;;5048591;28;20226;-52
2023/06/27 01:20:12;;;;;;;3.23;1.57;;;21.50;98.20;;;;;;5050402;28;20206;-52
2023/06/27 01:22:45;;;;;;;5.20;1.47;;;21.50;98.00;;;;;;5050067;28;20202;-53
2023/06/27 01:25:14;;;;;;;2.23;1.30;;;21.50;98.00;;;;;;5042772;28;20259;-52
2023/06/27 01:27:41;;;;;;;1.30;1.20;;;21.50;97.40;;;;;;5049743;28;20287;-52
2023/06/27 01:30:09;;;;;;;3.90;1.40;;;21.40;97.40;;;;;;5049020;28;20656;-53
2023/06/27 01:32:41;;;;;;;1.83;1.67;;;21.40;96.90;;;;;;5049666;28;20205;-52
2023/06/27 01:35:14;;;;;;;5.57;1.20;;;21.40;96.80;;;;;;5049145;28;20640;-53
2023/06/27 01:37:50;;;;;;;1.40;1.23;;;21.30;97.10;;;;;;5049748;28;20229;-52
2023/06/27 01:40:21;;;;;;;1.60;0.97;;;21.30;96.80;;;;;;5047592;28;20198;-52
2023/06/27 01:42:50;;;;;;;1.77;0.90;;;21.40;97.30;;;;;;5049115;28;20610;-52
2023/06/27 01:45:19;;;;;;;1.10;1.00;;;21.30;96.80;;;;;;5048007;28;20267;-52
2023/06/27 01:47:46;;;;;;;4.77;1.20;;;21.20;96.50;;;;;;5049918;28;20248;-53
2023/06/27 01:50:14;;;;;;;2.63;1.00;;;21.30;96.90;;;;;;5050222;28;20301;-53
2023/06/27 01:52:41;;;;;;;1.90;1.00;;;21.20;96.40;;;;;;5050614;28;20297;-53
2023/06/27 01:55:09;;;;;;;2.13;1.03;;;21.20;96.70;;;;;;5050940;28;20267;-53
2023/06/27 01:57:37;;;;;;;1.43;0.93;;;21.20;96.40;;;;;;5050975;28;20213;-52
2023/06/27 02:00:06;;;;;;;2.60;1.13;;;21.20;96.50;;;;;;5051044;28;20198;-52
2023/06/27 02:02:34;;;;;;;1.90;1.17;;;21.20;96.20;;;;;;5050431;28;20197;-53
2023/06/27 02:05:00;;;;;;;1.20;1.10;;;21.20;96.10;;;;;;5050781;28;20256;-53
2023/06/27 02:07:31;;;;;;;1.57;1.00;;;21.20;96.90;;;;;;5070375;22;20234;-57
2023/06/27 02:09:58;;;;;;;2.63;0.90;;;21.20;96.00;;;;;;5030971;28;20238;-57
2023/06/27 02:12:25;;;;;;;4.47;1.20;;;21.30;96.10;;;;;;5029977;28;20557;-57
2023/06/27 02:14:53;;;;;;;2.60;0.80;;;21.20;95.80;;;;;;5029723;28;20665;-57
2023/06/27 02:17:20;;;;;;;3.57;1.30;;;21.10;96.60;;;;;;5032732;28;20202;-57
2023/06/27 02:19:47;;;;;;;1.93;1.10;;;21.10;96.40;;;;;;5049203;28;20247;-57
2023/06/27 02:22:14;;;;;;;1.93;1.10;;;21.10;96.90;;;;;;5050435;28;20275;-58
2023/06/27 02:24:41;;;;;;;2.90;1.10;;;21.10;97.50;;;;;;5048504;28;20660;-57
2023/06/27 02:27:08;;;;;;;3.23;1.00;;;21.00;98.00;;;;;;5048315;28;20202;-57
2023/06/27 02:29:35;;;;;;;2.17;1.03;;;21.00;97.50;;;;;;5049986;28;20636;-58
2023/06/27 02:32:03;;;;;;;2.27;1.10;;;21.00;97.00;;;;;;5049147;28;20660;-57
2023/06/27 02:34:30;;;;;;;1.63;1.10;;;21.00;97.70;;;;;;5050315;28;20202;-57
2023/06/27 02:36:57;;;;;;;2.13;0.80;;;20.90;98.60;;;;;;5050706;28;20202;-57
2023/06/27 02:39:25;;;;;;;4.33;1.20;;;20.90;98.80;;;;;;5050646;28;20781;-57
2023/06/27 02:41:52;;;;;;;2.00;1.17;;;20.90;98.40;;;;;;5049577;28;20244;-58
2023/06/27 02:44:19;;;;;;;1.67;1.07;;;20.80;98.50;;;;;;5047067;28;20210;-58
2023/06/27 02:46:46;;;;;;;4.17;1.00;;;20.70;98.80;;;;;;5048697;28;20202;-58
2023/06/27 02:49:14;;;;;;;4.87;1.60;;;20.80;99.70;;;;;;5054571;28;20291;-58
2023/06/27 02:51:41;;;;;;;1.47;1.00;;;20.70;99.80;;;;;;5054719;28;20206;-58
2023/06/27 02:54:08;;;;;;;3.37;1.63;;;20.60;99.90;;;;;;5054159;28;20865;-58
2023/06/27 02:56:35;;;;;;;1.73;1.63;;;20.70;99.90;;;;;;5059162;28;20255;-57
2023/06/27 02:59:02;;;;;;;2.83;0.93;;;20.70;99.10;;;;;;5049590;28;20235;-57
2023/06/27 03:01:29;;;;;;;2.20;1.23;;;20.70;99.00;;;;;;5054531;28;20271;-57
2023/06/27 03:03:56;;;;;;;2.50;0.90;;;20.60;99.70;;;;;;5054019;28;20283;-58
2023/06/27 03:06:24;;;;;;;0.77;0.70;;;20.50;99.90;;;;;;5054392;28;20283;-58
2023/06/27 03:08:51;;;;;;;2.83;1.30;;;20.40;99.90;;;;;;5054052;28;20226;-58
2023/06/27 03:11:18;;;;;;;1.83;1.20;;;20.30;99.90;;;;;;5048641;28;20201;-58
2023/06/27 03:13:45;;;;;;;1.30;0.90;;;20.20;99.90;;;;;;5052580;28;20202;-58
2023/06/27 03:16:12;;;;;;;1.83;1.20;;;20.20;99.90;;;;;;5054145;28;20283;-58
2023/06/27 03:18:39;;;;;;;5.17;1.30;;;20.10;99.90;;;;;;5053338;28;20222;-57
2023/06/27 03:21:06;;;;;;;2.70;1.00;;;20.10;99.90;;;;;;5054055;28;20785;-58
2023/06/27 03:23:34;;;;;;;2.53;1.37;;;20.10;99.90;;;;;;5053778;28;20668;-58
2023/06/27 03:26:01;;;;;;;1.57;1.30;;;20.10;99.90;;;;;;5054003;28;20256;-58
2023/06/27 03:28:28;;;;;;;1.43;0.87;;;20.10;99.90;;;;;;5053756;28;20225;-58
2023/06/27 03:30:55;;;;;;;2.53;0.90;;;20.10;99.90;;;;;;5053253;28;20264;-57
2023/06/27 03:33:22;;;;;;;4.00;2.03;;;20.10;99.90;;;;;;5051941;28;20259;-58
2023/06/27 03:35:49;;;;;;;4.70;1.63;;;20.10;99.90;;;;;;5053859;28;20255;-57
2023/06/27 03:38:16;;;;;;;1.33;0.87;;;20.20;99.90;;;;;;5053056;28;20221;-57
2023/06/27 03:40:44;;;;;;;1.77;1.00;;;20.20;99.90;;;;;;5053107;28;20256;-58
2023/06/27 03:43:13;;;;;;;2.43;1.13;;;20.20;99.90;;;;;;5048880;28;20272;-58
2023/06/27 03:45:40;;;;;;;2.27;1.40;;;20.20;99.90;;;;;;5048154;28;20759;-57
2023/06/27 03:48:08;;;;;;;1.33;1.00;;;20.20;99.90;;;;;;5046902;28;20233;-57
2023/06/27 03:50:36;;;;;;;3.40;1.13;;;20.30;99.90;;;;;;5045427;28;20202;-57
2023/06/27 03:53:04;;;;;;;2.97;0.97;;;20.30;99.90;;;;;;5041227;28;20206;-57
2023/06/27 03:55:33;;;;;;;3.43;0.93;;;20.30;99.90;;;;;;5042700;28;20289;-58
2023/06/27 03:58:02;;;;;;;1.17;1.00;;;20.30;99.90;;;;;;5042530;28;20302;-58
2023/06/27 04:00:29;;;;;;;1.43;1.33;;;20.30;99.90;;;;;;5046335;28;20208;-58
2023/06/27 04:02:57;;;;;;;4.53;1.90;;;20.30;99.90;;;;;;5045526;28;20205;-57
2023/06/27 04:05:24;;;;;;;2.20;1.30;;;20.30;99.90;;;;;;5046179;28;20765;-57
2023/06/27 04:07:51;;;;;;;2.00;1.00;;;20.40;99.90;;;;;;5046733;28;20248;-58
2023/06/27 04:10:18;;;;;;;2.43;1.20;;;20.40;99.90;;;;;;5046108;28;20268;-57
2023/06/27 04:12:46;;;;;;;0.87;0.80;;;20.30;99.90;;;;;;5043485;28;20197;-58
2023/06/27 04:15:15;;;;;;;2.27;1.20;;;20.30;99.90;;;;;;5047104;28;20198;-58
2023/06/27 04:17:42;;;;;;;1.10;1.10;;;20.30;99.90;;;;;;5046360;28;20217;-58
2023/06/27 04:20:11;;;;;;;1.47;0.93;;;20.20;99.90;;;;;;5044792;28;20216;-58
2023/06/27 04:22:38;;;;;;;2.30;1.27;;;20.20;99.90;;;;;;5046251;28;20202;-58
2023/06/27 04:25:08;;;;;;;0.97;0.93;;;20.20;99.90;;;;;;5044149;28;20201;-58
2023/06/27 04:27:35;;;;;;;5.70;1.10;;;20.30;99.90;;;;;;5046104;28;20283;-57
2023/06/27 04:30:03;;;;;;;1.60;1.13;;;20.30;99.90;;;;;;5053387;28;20206;-59
2023/06/27 04:32:33;;;;;;;1.60;1.07;;;20.30;99.90;;;;;;5049203;28;20209;-57
2023/06/27 04:35:01;;;;;;;1.73;0.90;;;20.30;99.90;;;;;;5041407;28;20202;-57
2023/06/27 04:37:30;;;;;;;1.50;1.17;;;20.40;99.90;;;;;;5045070;28;20575;-58
2023/06/27 04:39:57;;;;;;;1.93;1.50;;;20.40;99.90;;;;;;5044849;28;20654;-58
2023/06/27 04:42:25;;;;;;;1.57;1.37;;;20.40;99.90;;;;;;5044898;28;20260;-58
2023/06/27 04:44:52;;;;;;;2.53;1.00;;;20.30;99.90;;;;;;5046346;28;20240;-57
2023/06/27 04:47:19;;;;;;;1.23;0.70;;;20.40;99.90;;;;;;5045951;28;20204;-58
2023/06/27 04:49:48;;;;;;;1.60;0.90;;;20.40;99.90;;;;;;5046489;28;20249;-58
2023/06/27 04:52:15;;;;;;;4.80;1.30;;;20.30;99.90;;;;;;5045332;28;20204;-58
2023/06/27 04:54:42;;;;;;;2.57;1.33;;;20.30;99.90;;;;;;5048704;28;20224;-57
2023/06/27 04:57:09;;;;;;;2.60;0.80;;;20.40;99.90;;;;;;5043164;28;20249;-58
2023/06/27 04:59:36;;;;;;;4.33;1.20;;;20.50;99.90;;;;;;5052230;28;20206;-57
2023/06/27 05:02:03;;;;;;;1.33;1.07;;;20.50;99.90;;;;;;5052548;28;20290;-58
2023/06/27 05:04:30;;;;;;;7.30;1.23;;;20.50;99.90;;;;;;5031989;28;20252;-57
2023/06/27 05:06:59;;;;;;;3.20;1.20;;;20.50;99.90;;;;;;5031914;28;20241;-58
2023/06/27 05:09:26;;;;;;;6.57;1.57;;;20.50;99.90;;;;;;5031023;28;20269;-58
2023/06/27 05:11:53;;;;;;;3.20;1.10;;;20.40;99.90;;;;;;5031708;28;20664;-57
2023/06/27 05:14:20;;;;;;;3.73;1.10;;;20.50;99.90;;;;;;5050888;28;20201;-58
2023/06/27 05:16:46;;;;;;;7.73;2.20;;;20.60;99.90;;;;;;5051581;28;20209;-57
2023/06/27 05:19:14;;;;;;;3.27;1.03;;;20.60;99.90;;;;;;5050919;28;20242;-58
2023/06/27 05:21:41;;;;;;;2.30;1.20;;;20.60;99.90;;;;;;5051809;28;20205;-58
2023/06/27 05:24:09;;;;;;;5.63;1.63;;;20.50;99.90;;;;;;5051620;28;20298;-57
2023/06/27 05:26:36;;;;;;;0.87;0.87;;;20.50;99.90;;;;;;5041238;28;20230;-57
2023/06/27 05:29:03;;;;;;;4.83;1.40;;;20.50;99.90;;;;;;5046613;28;20225;-57
2023/06/27 05:31:30;;;;;;;2.90;0.70;;;20.40;99.90;;;;;;5041237;28;20224;-58
2023/06/27 05:33:57;;;;;;;1.60;1.27;;;20.40;99.90;;;;;;5049916;28;20198;-57
2023/06/27 05:36:24;;;;;;;13.67;1.00;;;20.40;99.90;;;;;;5050833;28;20229;-57
2023/06/27 05:38:51;;;;;;;3.20;1.70;;;20.50;99.90;;;;;;5045664;28;20713;-57
2023/06/27 05:41:19;;;;;;;5.00;1.67;;;20.60;99.90;;;;;;5046214;28;20233;-57
2023/06/27 05:43:46;;;;;;;1.53;1.17;;;20.80;99.90;;;;;;5045277;28;20229;-57
2023/06/27 05:46:13;;;;;;;2.67;1.73;;;20.90;99.90;;;;;;5044800;28;20674;-57
2023/06/27 05:48:40;;;;;;;1.70;1.17;;;20.90;99.90;;;;;;5045771;28;20253;-58
2023/06/27 05:51:08;;;;;;;2.10;1.10;;;21.00;99.90;;;;;;5043541;28;20670;-57
2023/06/27 05:53:35;;;;;;;4.60;1.20;;;20.90;99.90;;;;;;5044077;28;20267;-57
2023/06/27 05:56:02;;;;;;;1.10;1.00;;;20.70;99.90;;;;;;5044925;28;20244;-58
2023/06/27 05:58:30;;;;;;;2.70;1.20;;;20.70;99.90;;;;;;5044656;28;20253;-57
2023/06/27 06:00:57;;;;;;;3.43;1.40;;;20.70;99.90;;;;;;5044334;28;20206;-58
2023/06/27 06:03:24;;;;;;;3.63;1.40;;;20.70;99.90;;;;;;5050768;28;20252;-57
2023/06/27 06:05:51;;;;;;;1.63;1.53;;;20.80;99.90;;;;;;5051177;28;20229;-58
2023/06/27 06:08:19;;;;;;;1.50;0.90;;;21.00;99.90;;;;;;5050476;28;20271;-57
2023/06/27 06:10:50;;;;;;;1.20;1.03;;;21.30;99.90;;;;;;5044259;28;20237;-57
2023/06/27 06:13:17;;;;;;;2.07;1.47;;;21.60;99.90;;;;;;5030221;28;20337;-58
2023/06/27 06:15:45;;;;;;;4.77;1.20;;;22.00;99.90;;;;;;5030910;28;20299;-58
2023/06/27 06:18:12;;;;;;;6.63;1.27;;;22.20;99.90;;;;;;5030505;28;20249;-58
2023/06/27 06:20:39;;;;;;;3.43;1.10;;;22.70;99.90;;;;;;5044505;28;20562;-58
2023/06/27 06:23:06;;;;;;;3.70;1.30;;;22.80;99.90;;;;;;5053175;28;20228;-57
2023/06/27 06:25:34;;;;;;;5.93;1.07;;;23.20;99.90;;;;;;5053586;28;20676;-58
2023/06/27 06:28:01;;;;;;;1.43;0.80;;;23.90;99.90;;;;;;5053102;28;20229;-57
2023/06/27 06:30:28;;;;;;;4.20;1.77;;;24.50;98.80;;;;;;5053712;28;20226;-58
2023/06/27 06:32:56;;;;;;;1.83;1.67;;;24.40;96.70;;;;;;5053504;28;20209;-58
2023/06/27 06:35:23;;;;;;;4.13;1.57;;;24.70;97.70;;;;;;5053012;28;20256;-58
2023/06/27 06:37:50;;;;;;;2.87;1.47;;;24.40;97.10;;;;;;5057077;28;20208;-58
2023/06/27 06:40:17;;;;;;;3.80;1.73;;;24.00;97.40;;;;;;5057017;28;20205;-57
2023/06/27 06:42:44;;;;;;;1.83;1.07;;;23.50;98.20;;;;;;5045937;28;20621;-58
2023/06/27 06:45:11;;;;;;;4.60;1.37;;;23.60;98.00;;;;;;5043373;28;20734;-57
2023/06/27 06:47:38;;;;;;;4.27;1.20;;;23.50;98.40;;;;;;5035639;28;20577;-58
2023/06/27 06:50:08;;;;;;;2.73;1.13;;;23.80;98.00;;;;;;5053216;28;20606;-57
2023/06/27 06:52:35;;;;;;;2.30;1.10;;;23.20;97.80;;;;;;5053006;28;20205;-58
2023/06/27 06:55:02;;;;;;;3.53;1.07;;;22.90;98.30;;;;;;5053215;28;20910;-57
2023/06/27 06:57:34;;;;;;;3.57;1.07;;;22.90;98.70;;;;;;5045762;28;20222;-57
2023/06/27 07:00:03;;;;;;;1.23;1.20;;;22.60;98.70;;;;;;5044655;28;20245;-57
2023/06/27 07:02:32;;;;;;;3.13;1.00;;;22.50;99.10;;;;;;5044402;28;20208;-57
2023/06/27 07:04:59;;;;;;;6.53;1.03;;;22.30;99.00;;;;;;5061953;28;20194;-57
2023/06/27 07:07:28;;;;;;;5.10;1.27;;;22.10;99.40;;;;;;5000168;28;1251991;-57
2023/06/27 07:09:55;;;;;;;1.87;0.97;;;21.80;99.90;;;;;;5039048;28;20313;-57
2023/06/27 07:12:23;;;;;;;2.10;1.20;;;21.60;99.60;;;;;;5034423;28;20260;-58
2023/06/27 07:14:50;;;;;;;3.80;1.50;;;21.50;99.90;;;;;;5056916;28;20208;-57
2023/06/27 07:17:17;;;;;;;4.40;1.27;;;21.40;99.90;;;;;;5054171;28;20208;-57
2023/06/27 07:19:44;;;;;;;4.70;1.27;;;21.10;99.90;;;;;;5051477;28;20198;-57
2023/06/27 07:22:11;;;;;;;2.40;1.17;;;21.00;99.90;;;;;;5068850;28;20203;-57
2023/06/27 07:24:42;;;;;;;2.50;1.40;;;20.90;99.90;;;;;;5073939;28;20620;-57
2023/06/27 07:27:09;;;;;;;5.30;1.47;;;20.80;99.90;;;;;;5073808;28;20690;-57
2023/06/27 07:29:37;;;;;;;3.10;1.10;;;20.80;99.90;;;;;;5071347;28;20694;-57
2023/06/27 07:32:04;;;;;;;2.17;1.30;;;21.00;99.90;;;;;;5053486;28;20625;-57
2023/06/27 07:34:32;;;;;;;3.17;1.30;;;21.10;99.90;;;;;;5052739;28;20288;-57
2023/06/27 07:36:59;;;;;;;4.43;1.60;;;21.30;99.90;;;;;;5050977;28;20242;-57
2023/06/27 07:39:26;;;;;;;2.17;1.43;;;21.60;99.90;;;;;;5053611;28;20263;-57
2023/06/27 07:41:54;;;;;;;3.80;1.17;;;22.10;99.90;;;;;;5053049;28;20201;-58
2023/06/27 07:44:21;;;;;;;1.30;1.10;;;22.60;99.90;;;;;;5041469;28;20197;-58
2023/06/27 07:46:48;;;;;;;4.57;1.75;;;22.80;99.90;;;;;;5036739;28;20453;-59
2023/06/27 07:49:15;;;;;;;1.67;1.53;;;23.00;99.90;;;;;;5051338;28;20291;-57
2023/06/27 07:51:42;;;;;;;3.43;1.87;;;23.10;98.50;;;;;;5052953;28;20197;-59
2023/06/27 07:54:09;;;;;;;2.93;1.30;;;23.20;99.80;;;;;;5048835;28;20205;-59
2023/06/27 07:56:36;;;;;;;2.33;1.73;;;22.80;99.10;;;;;;5052713;28;20201;-59
2023/06/27 07:59:05;;;;;;;5.50;1.37;;;22.60;99.90;;;;;;5053058;28;20214;-60
2023/06/27 08:01:33;;;;;;;3.83;1.30;;;22.60;99.90;;;;;;5052464;28;20229;-59
2023/06/27 08:03:59;;;;;;;1.83;1.33;;;22.60;99.90;;;;;;5046532;28;20657;-61
2023/06/27 08:06:27;;;;;;;3.77;1.00;;;22.50;99.90;;;;;;5049295;28;20205;-59
2023/06/27 08:08:53;;;;;;;2.78;1.42;;;22.70;99.90;;;;;;5116172;22;20453;-56
2023/06/27 08:11:21;;;;;;;5.43;1.53;;;22.90;99.90;;;;;;5089531;28;20197;-55
2023/06/27 08:13:48;;;;;;;1.60;1.50;;;22.90;99.10;;;;;;5088159;28;20202;-56
2023/06/27 08:16:16;;;;;;;5.73;2.00;;;23.10;99.30;;;;;;5089940;28;20200;-55
2023/06/27 08:18:43;;;;;;;2.03;1.17;;;23.50;99.60;;;;;;5090886;28;20269;-55
2023/06/27 08:21:10;;;;;;;1.43;1.20;;;23.50;99.70;;;;;;5091618;28;20262;-57
2023/06/27 08:23:37;;;;;;;4.53;1.70;;;23.40;99.30;;;;;;5092244;28;20196;-55
2023/06/27 08:26:04;;;;;;;1.70;1.60;;;23.00;99.40;;;;;;5090733;28;20200;-55
2023/06/27 08:28:32;;;;;;;1.43;1.33;;;23.00;98.70;;;;;;5090366;28;20227;-54
2023/06/27 08:30:59;;;;;;;4.20;1.23;;;23.30;99.90;;;;;;5087569;28;20303;-54
2023/06/27 08:33:27;;;;;;;1.73;1.37;;;23.40;99.20;;;;;;5090710;28;20328;-54
2023/06/27 08:35:54;;;;;;;4.47;1.53;;;23.50;99.70;;;;;;5090449;28;20246;-54
2023/06/27 08:38:21;;;;;;;1.50;1.40;;;23.50;99.90;;;;;;5091955;28;20216;-54
2023/06/27 08:40:52;;;;;;;5.60;1.87;;;23.20;99.50;;;;;;5088051;28;20192;-54
2023/06/27 08:43:19;;;;;;;1.37;1.23;;;23.30;99.50;;;;;;5091025;28;20200;-54
2023/06/27 08:45:48;;;;;;;2.73;1.33;;;23.50;99.50;;;;;;5091912;28;20204;-53
2023/06/27 08:48:16;;;;;;;3.13;1.50;;;23.50;99.40;;;;;;5090005;28;20293;-54
2023/06/27 08:50:45;;;;;;;3.03;1.27;;;23.30;99.90;;;;;;5089209;28;20588;-54
2023/06/27 08:53:14;;;;;;;3.10;1.27;;;23.10;99.90;;;;;;5090809;28;20203;-53
2023/06/27 08:55:49;;;;;;;4.10;1.83;;;23.10;99.50;;;;;;5091157;28;20228;-54
2023/06/27 08:58:17;;;;;;;1.60;1.43;;;23.20;99.20;;;;;;5090033;28;20219;-54
2023/06/27 09:00:45;;;;;;;2.13;1.60;;;23.40;99.90;;;;;;5088023;28;20329;-53
2023/06/27 09:03:13;;;;;;;4.50;2.80;;;23.50;99.90;;;;;;5094812;28;20211;-53
2023/06/27 09:05:41;;;;;;;3.60;1.70;;;23.70;99.90;;;;;;5095705;28;20254;-54
2023/06/27 09:08:09;;;;;;;3.23;1.53;;;23.60;99.90;;;;;;5102692;28;20220;-54
2023/06/27 09:10:36;;;;;;;2.73;1.47;;;23.30;99.90;;;;;;5094675;28;20221;-53
2023/06/27 09:13:04;;;;;;;3.90;2.00;;;23.20;99.90;;;;;;5091132;28;20192;-53
2023/06/27 09:15:31;;;;;;;2.53;1.57;;;22.80;99.80;;;;;;5091859;28;20281;-53
2023/06/27 09:17:58;;;;;;;3.03;1.37;;;22.50;99.90;;;;;;5091644;28;20247;-54
2023/06/27 09:20:25;;;;;;;3.70;2.10;;;22.40;99.90;;;;;;5090833;28;20249;-53
2023/06/27 09:22:53;;;;;;;2.73;1.53;;;22.20;99.90;;;;;;5091323;28;20261;-54
2023/06/27 09:25:25;;;;;;;7.20;1.90;;;22.30;99.90;;;;;;5091834;28;20212;-53
2023/06/27 09:27:52;;;;;;;2.03;1.73;;;22.30;99.90;;;;;;5091795;28;20200;-54
2023/06/27 09:30:20;;;;;;;3.20;1.80;;;22.40;99.90;;;;;;5090427;28;20630;-54
2023/06/27 09:32:54;;;;;;;2.83;1.33;;;22.40;99.90;;;;;;5091332;28;20192;-53
2023/06/27 09:35:21;;;;;;;2.93;1.43;;;22.30;99.90;;;;;;5091236;28;20218;-54
2023/06/27 09:37:48;;;;;;;1.70;1.60;;;22.40;99.90;;;;;;5091677;28;20253;-54
2023/06/27 09:40:21;;;;;;;5.00;1.90;;;22.50;99.90;;;;;;5091014;28;20197;-54
2023/06/27 09:42:51;;;;;;;1.80;1.63;;;22.70;99.90;;;;;;5091305;28;20192;-54
2023/06/27 09:45:18;;;;;;;5.37;2.03;;;22.80;99.90;;;;;;5091468;28;20203;-54
2023/06/27 09:47:47;;;;;;;3.67;1.70;;;23.00;99.90;;;;;;5091204;28;20261;-54
2023/06/27 09:50:14;;;;;;;2.77;2.23;;;23.10;99.90;;;;;;5090189;28;20685;-54
2023/06/27 09:52:49;;;;;;;5.93;1.73;;;22.90;99.60;;;;;;5090957;28;20204;-54
2023/06/27 09:55:18;;;;;;;3.93;2.10;;;23.50;99.90;;;;;;5071132;28;20223;-54
2023/06/27 09:57:48;;;;;;;2.50;2.17;;;24.50;99.90;;;;;;5092888;28;20670;-54
2023/06/27 10:00:19;;;;;;;3.03;1.67;;;25.50;96.90;;;;;;5094370;28;20281;-55
2023/06/27 10:02:48;;;;;;;2.13;1.93;;;26.40;98.20;;;;;;5095243;28;20200;-54
2023/06/27 10:05:15;;;;;;;5.93;1.77;;;26.60;98.40;;;;;;5093439;28;20279;-55
2023/06/27 10:07:44;;;;;;;1.83;1.67;;;26.70;95.90;;;;;;5094931;28;20246;-54
2023/06/27 10:10:12;;;;;;;3.63;2.00;;;27.50;94.80;;;;;;5085999;28;20234;-54
2023/06/27 10:12:39;;;;;;;2.93;1.57;;;27.90;94.70;;;;;;5094940;28;20207;-53
2023/06/27 10:15:10;;;;;;;1.97;1.80;;;27.50;95.80;;;;;;5094931;28;20253;-53
2023/06/27 10:17:37;;;;;;;3.77;2.33;;;27.60;96.00;;;;;;5095240;28;20231;-53
2023/06/27 10:20:08;;;;;;;4.90;2.17;;;28.30;95.10;;;;;;5084342;28;20189;-53
2023/06/27 10:22:36;;;;;;;4.10;1.77;;;28.40;93.00;;;;;;5086127;28;20208;-53
2023/06/27 10:25:05;;;;;;;2.40;1.75;;;28.30;92.80;;;;;;5094679;28;20200;-54
2023/06/27 10:27:34;;;;;;;2.83;1.95;;;28.20;93.40;;;;;;5094814;28;20295;-54
2023/06/27 10:30:04;;;;;;;2.40;2.03;;;28.00;93.50;;;;;;5091369;28;20653;-54
2023/06/27 10:32:43;;;;;;;5.00;1.70;;;28.00;93.00;;;;;;5089906;28;20193;-53
2023/06/27 10:35:13;;;;;;;3.93;1.93;;;28.20;92.00;;;;;;5094892;28;20215;-55
2023/06/27 10:37:42;;;;;;;2.00;1.40;;;27.90;93.10;;;;;;5094648;28;20204;-53
2023/06/27 10:40:10;;;;;;;2.00;1.83;;;27.50;92.80;;;;;;5089942;28;20208;-53
2023/06/27 10:42:38;;;;;;;6.93;1.40;;;27.40;93.80;;;;;;5087033;28;20206;-53
2023/06/27 10:45:09;;;;;;;2.43;1.77;;;26.90;93.30;;;;;;5094434;28;20518;-53
2023/06/27 10:47:41;;;;;;;2.55;1.80;;;26.60;95.60;;;;;;5093406;28;20458;-55
2023/06/27 10:50:13;;;;;;;1.90;1.60;;;26.40;93.30;;;;;;5089923;28;20712;-56
2023/06/27 10:52:42;;;;;;;4.10;2.43;;;26.10;93.20;;;;;;5082115;28;20609;-56
2023/06/27 10:55:28;;;;;;;2.90;1.87;;;26.00;93.80;;;;;;5094207;28;20200;-57
2023/06/27 10:58:06;;;;;;;7.20;2.17;;;25.90;93.70;;;;;;5094277;28;20216;-57
2023/06/27 11:00:35;;;;;;;1.80;1.63;;;26.00;93.40;;;;;;5092956;28;20658;-55
2023/06/27 11:03:05;;;;;;;4.50;2.93;;;25.80;95.50;;;;;;5086307;28;20211;-56
2023/06/27 11:05:47;;;;;;;2.90;1.50;;;25.80;94.00;;;;;;5114713;28;20219;-57
2023/06/27 11:08:17;;;;;;;6.77;1.90;;;25.90;95.40;;;;;;5114091;28;20236;-57
2023/06/27 11:10:52;;;;;;;6.13;3.03;;;26.20;94.60;;;;;;5107027;28;20230;-57
2023/06/27 11:13:23;;;;;;;2.60;1.60;;;26.20;93.90;;;;;;5086773;28;20612;-57
2023/06/27 11:15:52;;;;;;;2.37;1.90;;;26.40;94.20;;;;;;5094003;28;20196;-54
2023/06/27 11:18:21;;;;;;;2.10;1.20;;;26.00;95.10;;;;;;5093792;28;20224;-61
2023/06/27 11:20:49;;;;;;;3.17;1.40;;;26.00;94.00;;;;;;5091913;28;20196;-62
2023/06/27 11:23:17;;;;;;;2.10;2.10;;;26.20;95.00;;;;;;5086143;28;20758;-62
2023/06/27 11:25:45;;;;;;;3.03;1.60;;;26.50;93.50;;;;;;5093689;28;20201;-61
2023/06/27 11:28:17;;;;;;;3.63;1.67;;;26.70;95.10;;;;;;5093730;28;20216;-61
2023/06/27 11:30:44;;;;;;;2.90;1.77;;;26.20;94.60;;;;;;5092374;28;20235;-62
2023/06/27 11:33:13;;;;;;;2.00;1.30;;;25.80;94.90;;;;;;5085364;28;20200;-67
2023/06/27 11:35:41;;;;;;;2.93;1.40;;;25.80;93.70;;;;;;5093371;28;20197;-65
2023/06/27 11:38:10;;;;;;;6.10;1.80;;;25.40;93.00;;;;;;5093347;28;20782;-65
2023/06/27 11:40:37;;;;;;;2.20;1.67;;;25.60;92.40;;;;;;5083898;28;20198;-67
2023/06/27 11:43:05;;;;;;;1.67;1.43;;;25.80;93.00;;;;;;5092521;28;20201;-54
2023/06/27 11:45:33;;;;;;;1.23;1.13;;;25.80;92.60;;;;;;5093232;28;20258;-53
2023/06/27 11:48:01;;;;;;;4.33;2.07;;;25.80;92.40;;;;;;5093193;28;20227;-54
2023/06/27 11:50:29;;;;;;;2.00;1.67;;;25.80;93.10;;;;;;5090002;28;20216;-53
2023/06/27 11:52:59;;;;;;;3.27;1.53;;;25.90;94.70;;;;;;5092359;28;20231;-53
2023/06/27 11:55:26;;;;;;;4.30;1.90;;;25.90;94.30;;;;;;5084800;28;20197;-53
2023/06/27 11:57:55;;;;;;;3.20;1.83;;;25.70;94.40;;;;;;5092176;28;20220;-53
2023/06/27 12:00:26;;;;;;;4.47;1.40;;;25.60;93.70;;;;;;5086029;28;20207;-53
2023/06/27 12:02:54;;;;;;;2.40;1.70;;;25.60;94.00;;;;;;5089964;28;20212;-53
2023/06/27 12:05:23;;;;;;;2.10;1.50;;;25.60;93.70;;;;;;5086628;28;20193;-54
2023/06/27 12:08:01;;;;;;;1.73;1.17;;;25.70;93.00;;;;;;5092501;28;20208;-53
2023/06/27 12:10:28;;;;;;;1.67;1.57;;;25.80;94.30;;;;;;5092845;28;20258;-53
2023/06/27 12:12:56;;;;;;;3.33;1.43;;;25.80;93.60;;;;;;5091615;28;20624;-54
2023/06/27 12:15:23;;;;;;;2.70;1.57;;;25.80;92.30;;;;;;5092325;28;20205;-53
2023/06/27 12:17:58;;;;;;;3.17;1.77;;;25.30;92.40;;;;;;5092856;28;20269;-53
2023/06/27 12:20:25;;;;;;;5.13;1.50;;;25.40;94.80;;;;;;5092063;28;20203;-52
2023/06/27 12:22:52;;;;;;;4.03;1.90;;;25.50;94.90;;;;;;5089957;28;20208;-62
2023/06/27 12:25:20;;;;;;;6.03;1.90;;;25.50;94.50;;;;;;5085434;28;20261;-56
2023/06/27 12:27:47;;;;;;;3.90;1.80;;;25.60;93.90;;;;;;5092318;28;20548;-57
2023/06/27 12:30:14;;;;;;;2.85;1.85;;;25.60;95.40;;;;;;5092434;28;20551;-57
2023/06/27 12:32:42;;;;;;;2.27;1.60;;;25.50;95.00;;;;;;5091370;28;20201;-55
2023/06/27 12:35:09;;;;;;;4.57;1.53;;;25.00;93.70;;;;;;5087621;28;20197;-64
2023/06/27 12:37:38;;;;;;;3.03;1.50;;;25.10;96.00;;;;;;5087864;28;20200;-64
2023/06/27 12:40:06;;;;;;;2.13;1.90;;;25.30;94.90;;;;;;5092185;28;20205;-64
2023/06/27 12:42:36;;;;;;;5.53;2.53;;;25.50;96.20;;;;;;5091385;28;20192;-66
2023/06/27 12:45:03;;;;;;;1.87;1.77;;;25.40;94.50;;;;;;5092162;28;20250;-65
2023/06/27 12:47:33;;;;;;;3.43;3.03;;;25.40;95.20;;;;;;5092248;28;20200;-62
2023/06/27 12:50:00;;;;;;;5.47;1.90;;;25.30;96.80;;;;;;5092006;28;20277;-61